sensor_id;sensor_type;location;lat;lon;timestamp;temperature;humidity
40600;DHT22;26309;50.924;4.754;2023-02-01T00:00:19;7.50;99.90
40600;DHT22;26309;50.924;4.754;2023-02-01T00:02:45;7.50;99.90
40600;DHT22;26309;50.924;4.754;2023-02-01T00:05:11;7.40;99.90
40600;DHT22;26309;50.924;4.754;2023-02-01T00:07:37;7.60;99.90
40600;DHT22;26309;50.924;4.754;2023-02-01T00:10:05;7.60;99.90
40600;DHT22;26309;50.924;4.754;2023-02-01T00:12:31;7.70;99.90
40600;DHT22;26309;50.924;4.754;2023-02-01T00:14:58;7.80;99.90
40600;DHT22;26309;50.924;4.754;2023-02-01T00:17:24;7.90;99.90
40600;DHT22;26309;50.924;4.754;2023-02-01T00:19:53;7.80;99.90
40600;DHT22;26309;50.924;4.754;2023-02-01T00:22:18;7.90;99.90
40600;DHT22;26309;50.924;4.754;2023-02-01T00:24:45;7.80;99.90
40600;DHT22;26309;50.924;4.754;2023-02-01T00:27:11;7.80;99.90
40600;DHT22;26309;50.924;4.754;2023-02-01T00:29:44;7.90;99.90
40600;DHT22;26309;50.924;4.754;2023-02-01T00:32:10;8.10;99.90
40600;DHT22;26309;50.924;4.754;2023-02-01T00:34:36;8.10;99.90
40600;DHT22;26309;50.924;4.754;2023-02-01T00:37:08;7.90;99.90
40600;DHT22;26309;50.924;4.754;2023-02-01T00:39:33;7.80;99.90
40600;DHT22;26309;50.924;4.754;2023-02-01T00:42:00;7.80;99.90
40600;DHT22;26309;50.924;4.754;2023-02-01T00:44:27;7.90;99.90
40600;DHT22;26309;50.924;4.754;2023-02-01T00:46:53;8.00;99.90
40600;DHT22;26309;50.924;4.754;2023-02-01T00:49:19;8.10;99.90
40600;DHT22;26309;50.924;4.754;2023-02-01T00:51:45;8.20;99.90
40600;DHT22;26309;50.924;4.754;2023-02-01T00:54:11;8.30;99.90
40600;DHT22;26309;50.924;4.754;2023-02-01T00:56:37;8.10;99.90
40600;DHT22;26309;50.924;4.754;2023-02-01T00:59:02;7.90;99.90
40600;DHT22;26309;50.924;4.754;2023-02-01T01:01:28;8.00;99.90
40600;DHT22;26309;50.924;4.754;2023-02-01T01:03:58;7.90;99.90
40600;DHT22;26309;50.924;4.754;2023-02-01T01:06:29;7.80;99.90
40600;DHT22;26309;50.924;4.754;2023-02-01T01:08:57;7.90;99.90
40600;DHT22;26309;50.924;4.754;2023-02-01T01:11:26;7.80;99.90
40600;DHT22;26309;50.924;4.754;2023-02-01T01:13:53;7.80;99.90
40600;DHT22;26309;50.924;4.754;2023-02-01T01:16:20;7.80;99.90
40600;DHT22;26309;50.924;4.754;2023-02-01T01:18:47;7.90;99.90
40600;DHT22;26309;50.924;4.754;2023-02-01T01:21:14;7.80;99.90
40600;DHT22;26309;50.924;4.754;2023-02-01T01:23:41;7.70;99.90
40600;DHT22;26309;50.924;4.754;2023-02-01T01:26:09;7.70;99.90
40600;DHT22;26309;50.924;4.754;2023-02-01T01:28:35;7.80;99.90
40600;DHT22;26309;50.924;4.754;2023-02-01T01:31:01;7.90;99.90
40600;DHT22;26309;50.924;4.754;2023-02-01T01:33:27;7.90;99.90
40600;DHT22;26309;50.924;4.754;2023-02-01T01:35:53;7.90;99.90
40600;DHT22;26309;50.924;4.754;2023-02-01T01:38:19;7.80;99.90
40600;DHT22;26309;50.924;4.754;2023-02-01T01:40:46;7.70;99.90
40600;DHT22;26309;50.924;4.754;2023-02-01T01:43:14;7.70;99.90
40600;DHT22;26309;50.924;4.754;2023-02-01T01:45:41;7.60;99.90
40600;DHT22;26309;50.924;4.754;2023-02-01T01:51:03;7.70;99.90
40600;DHT22;26309;50.924;4.754;2023-02-01T01:53:45;7.70;99.90
40600;DHT22;26309;50.924;4.754;2023-02-01T01:56:12;7.50;99.90
40600;DHT22;26309;50.924;4.754;2023-02-01T01:58:38;7.60;99.90
40600;DHT22;26309;50.924;4.754;2023-02-01T02:01:04;7.50;99.90
40600;DHT22;26309;50.924;4.754;2023-02-01T02:03:39;7.40;99.90
40600;DHT22;26309;50.924;4.754;2023-02-01T02:06:17;7.30;99.90
40600;DHT22;26309;50.924;4.754;2023-02-01T02:08:45;7.40;99.90
40600;DHT22;26309;50.924;4.754;2023-02-01T02:11:15;7.50;99.90
40600;DHT22;26309;50.924;4.754;2023-02-01T02:13:44;7.60;99.90
40600;DHT22;26309;50.924;4.754;2023-02-01T02:25:00;7.50;99.90
40600;DHT22;26309;50.924;4.754;2023-02-01T02:31:05;7.30;99.90
40600;DHT22;26309;50.924;4.754;2023-02-01T02:33:51;7.20;99.90
40600;DHT22;26309;50.924;4.754;2023-02-01T02:36:34;7.20;99.90
40600;DHT22;26309;50.924;4.754;2023-02-01T02:41:48;7.20;99.90
40600;DHT22;26309;50.924;4.754;2023-02-01T02:44:47;7.00;99.90
40600;DHT22;26309;50.924;4.754;2023-02-01T02:47:42;7.00;99.90
40600;DHT22;26309;50.924;4.754;2023-02-01T02:53:22;6.70;99.90
40600;DHT22;26309;50.924;4.754;2023-02-01T02:56:09;6.70;99.90
40600;DHT22;26309;50.924;4.754;2023-02-01T02:58:55;6.70;99.90
40600;DHT22;26309;50.924;4.754;2023-02-01T03:01:43;6.70;99.90
40600;DHT22;26309;50.924;4.754;2023-02-01T03:04:27;6.70;99.90
40600;DHT22;26309;50.924;4.754;2023-02-01T03:06:54;6.60;99.90
40600;DHT22;26309;50.924;4.754;2023-02-01T03:09:35;6.60;99.90
40600;DHT22;26309;50.924;4.754;2023-02-01T03:12:07;6.50;99.90
40600;DHT22;26309;50.924;4.754;2023-02-01T03:15:01;6.50;99.90
40600;DHT22;26309;50.924;4.754;2023-02-01T03:17:34;6.50;99.90
40600;DHT22;26309;50.924;4.754;2023-02-01T03:20:04;6.60;99.90
40600;DHT22;26309;50.924;4.754;2023-02-01T03:22:31;6.60;99.90
40600;DHT22;26309;50.924;4.754;2023-02-01T03:25:10;6.50;99.90
40600;DHT22;26309;50.924;4.754;2023-02-01T03:32:48;6.60;99.90
40600;DHT22;26309;50.924;4.754;2023-02-01T03:35:51;6.70;99.90
40600;DHT22;26309;50.924;4.754;2023-02-01T03:41:21;6.70;99.90
40600;DHT22;26309;50.924;4.754;2023-02-01T03:44:21;6.60;99.90
40600;DHT22;26309;50.924;4.754;2023-02-01T03:49:34;6.50;99.90
40600;DHT22;26309;50.924;4.754;2023-02-01T03:52:02;6.50;99.90
40600;DHT22;26309;50.924;4.754;2023-02-01T03:54:29;6.50;99.90
40600;DHT22;26309;50.924;4.754;2023-02-01T03:57:00;6.60;99.90
40600;DHT22;26309;50.924;4.754;2023-02-01T03:59:27;6.70;99.90
40600;DHT22;26309;50.924;4.754;2023-02-01T04:01:52;6.70;99.90
40600;DHT22;26309;50.924;4.754;2023-02-01T04:04:18;6.60;99.90
40600;DHT22;26309;50.924;4.754;2023-02-01T04:06:48;6.50;99.90
40600;DHT22;26309;50.924;4.754;2023-02-01T04:09:14;6.50;99.90
40600;DHT22;26309;50.924;4.754;2023-02-01T04:11:40;6.50;99.90
40600;DHT22;26309;50.924;4.754;2023-02-01T04:14:06;6.40;99.90
40600;DHT22;26309;50.924;4.754;2023-02-01T04:16:32;6.50;99.90
40600;DHT22;26309;50.924;4.754;2023-02-01T04:18:58;6.50;99.90
40600;DHT22;26309;50.924;4.754;2023-02-01T04:21:25;6.50;99.90
40600;DHT22;26309;50.924;4.754;2023-02-01T04:23:51;6.60;99.90
40600;DHT22;26309;50.924;4.754;2023-02-01T04:26:17;6.50;99.90
40600;DHT22;26309;50.924;4.754;2023-02-01T04:28:45;6.50;99.90
40600;DHT22;26309;50.924;4.754;2023-02-01T04:31:16;6.50;99.90
40600;DHT22;26309;50.924;4.754;2023-02-01T04:33:42;6.50;99.90
40600;DHT22;26309;50.924;4.754;2023-02-01T04:36:09;6.40;99.90
40600;DHT22;26309;50.924;4.754;2023-02-01T04:38:35;6.50;99.90
40600;DHT22;26309;50.924;4.754;2023-02-01T04:41:01;6.40;99.90
40600;DHT22;26309;50.924;4.754;2023-02-01T04:43:26;6.40;99.90
40600;DHT22;26309;50.924;4.754;2023-02-01T04:45:53;6.40;99.90
40600;DHT22;26309;50.924;4.754;2023-02-01T04:48:20;6.40;99.90
40600;DHT22;26309;50.924;4.754;2023-02-01T04:50:48;6.30;99.90
40600;DHT22;26309;50.924;4.754;2023-02-01T04:53:17;6.30;99.90
40600;DHT22;26309;50.924;4.754;2023-02-01T04:55:44;6.30;99.90
40600;DHT22;26309;50.924;4.754;2023-02-01T04:58:10;6.20;99.90
40600;DHT22;26309;50.924;4.754;2023-02-01T05:00:37;6.20;99.90
40600;DHT22;26309;50.924;4.754;2023-02-01T05:03:05;6.20;99.90
40600;DHT22;26309;50.924;4.754;2023-02-01T05:05:31;6.20;99.90
40600;DHT22;26309;50.924;4.754;2023-02-01T05:07:57;6.10;99.90
40600;DHT22;26309;50.924;4.754;2023-02-01T05:10:23;6.20;99.90
40600;DHT22;26309;50.924;4.754;2023-02-01T05:12:48;6.10;99.90
40600;DHT22;26309;50.924;4.754;2023-02-01T05:15:33;6.10;99.90
40600;DHT22;26309;50.924;4.754;2023-02-01T05:17:58;6.10;99.90
40600;DHT22;26309;50.924;4.754;2023-02-01T05:20:24;6.10;99.90
40600;DHT22;26309;50.924;4.754;2023-02-01T05:22:50;6.00;99.90
40600;DHT22;26309;50.924;4.754;2023-02-01T05:25:16;6.10;99.90
40600;DHT22;26309;50.924;4.754;2023-02-01T05:27:43;6.00;99.90
40600;DHT22;26309;50.924;4.754;2023-02-01T05:30:09;5.90;99.90
40600;DHT22;26309;50.924;4.754;2023-02-01T05:32:35;5.80;99.90
40600;DHT22;26309;50.924;4.754;2023-02-01T05:35:01;5.80;99.90
40600;DHT22;26309;50.924;4.754;2023-02-01T05:37:27;6.00;99.90
40600;DHT22;26309;50.924;4.754;2023-02-01T05:39:53;5.80;99.90
40600;DHT22;26309;50.924;4.754;2023-02-01T05:42:19;5.80;99.90
40600;DHT22;26309;50.924;4.754;2023-02-01T05:44:44;5.80;99.90
40600;DHT22;26309;50.924;4.754;2023-02-01T05:47:10;5.80;99.90
40600;DHT22;26309;50.924;4.754;2023-02-01T05:49:38;6.00;99.90
40600;DHT22;26309;50.924;4.754;2023-02-01T05:52:03;5.90;99.90
40600;DHT22;26309;50.924;4.754;2023-02-01T05:54:29;5.70;99.90
40600;DHT22;26309;50.924;4.754;2023-02-01T05:56:55;5.80;99.90
40600;DHT22;26309;50.924;4.754;2023-02-01T05:59:22;5.80;99.90
40600;DHT22;26309;50.924;4.754;2023-02-01T06:01:48;5.80;99.90
40600;DHT22;26309;50.924;4.754;2023-02-01T06:04:14;5.80;99.90
40600;DHT22;26309;50.924;4.754;2023-02-01T06:06:39;5.90;99.90
40600;DHT22;26309;50.924;4.754;2023-02-01T06:09:05;5.80;99.90
40600;DHT22;26309;50.924;4.754;2023-02-01T06:11:31;5.80;99.90
40600;DHT22;26309;50.924;4.754;2023-02-01T06:13:57;5.80;99.90
40600;DHT22;26309;50.924;4.754;2023-02-01T06:16:23;5.80;99.90
40600;DHT22;26309;50.924;4.754;2023-02-01T06:18:48;5.70;99.90
40600;DHT22;26309;50.924;4.754;2023-02-01T06:21:14;5.70;99.90
40600;DHT22;26309;50.924;4.754;2023-02-01T06:23:52;5.70;99.90
40600;DHT22;26309;50.924;4.754;2023-02-01T06:26:19;5.70;99.90
40600;DHT22;26309;50.924;4.754;2023-02-01T06:28:45;5.60;99.90
40600;DHT22;26309;50.924;4.754;2023-02-01T06:31:17;5.70;99.90
40600;DHT22;26309;50.924;4.754;2023-02-01T06:33:43;5.60;99.90
40600;DHT22;26309;50.924;4.754;2023-02-01T06:36:10;5.70;99.90
40600;DHT22;26309;50.924;4.754;2023-02-01T06:38:37;5.80;99.90
40600;DHT22;26309;50.924;4.754;2023-02-01T06:41:05;5.80;99.90
40600;DHT22;26309;50.924;4.754;2023-02-01T06:43:31;5.90;99.90
40600;DHT22;26309;50.924;4.754;2023-02-01T06:46:02;5.80;99.90
40600;DHT22;26309;50.924;4.754;2023-02-01T06:48:28;5.70;99.90
40600;DHT22;26309;50.924;4.754;2023-02-01T06:50:54;5.60;99.90
40600;DHT22;26309;50.924;4.754;2023-02-01T06:53:20;5.60;99.90
40600;DHT22;26309;50.924;4.754;2023-02-01T06:55:58;5.50;99.90
40600;DHT22;26309;50.924;4.754;2023-02-01T06:58:24;5.50;99.90
40600;DHT22;26309;50.924;4.754;2023-02-01T07:00:50;5.50;99.90
40600;DHT22;26309;50.924;4.754;2023-02-01T07:03:16;5.50;99.90
40600;DHT22;26309;50.924;4.754;2023-02-01T07:05:42;5.60;99.90
40600;DHT22;26309;50.924;4.754;2023-02-01T07:08:08;5.40;99.90
40600;DHT22;26309;50.924;4.754;2023-02-01T07:10:34;5.40;99.90
40600;DHT22;26309;50.924;4.754;2023-02-01T07:13:00;5.60;99.90
40600;DHT22;26309;50.924;4.754;2023-02-01T07:15:26;5.60;99.90
40600;DHT22;26309;50.924;4.754;2023-02-01T07:17:54;5.50;99.90
40600;DHT22;26309;50.924;4.754;2023-02-01T07:20:20;5.50;99.90
40600;DHT22;26309;50.924;4.754;2023-02-01T07:22:46;5.40;99.90
40600;DHT22;26309;50.924;4.754;2023-02-01T07:25:12;5.50;99.90
40600;DHT22;26309;50.924;4.754;2023-02-01T07:27:40;5.50;99.90
40600;DHT22;26309;50.924;4.754;2023-02-01T07:30:07;5.50;99.90
40600;DHT22;26309;50.924;4.754;2023-02-01T07:32:32;5.50;99.90
40600;DHT22;26309;50.924;4.754;2023-02-01T07:34:58;5.60;99.90
40600;DHT22;26309;50.924;4.754;2023-02-01T07:37:24;5.60;99.90
40600;DHT22;26309;50.924;4.754;2023-02-01T07:39:51;5.60;99.90
40600;DHT22;26309;50.924;4.754;2023-02-01T07:42:18;5.60;99.90
40600;DHT22;26309;50.924;4.754;2023-02-01T07:44:44;5.70;99.90
40600;DHT22;26309;50.924;4.754;2023-02-01T07:47:10;5.70;99.90
40600;DHT22;26309;50.924;4.754;2023-02-01T07:49:36;5.70;99.90
40600;DHT22;26309;50.924;4.754;2023-02-01T07:52:01;5.70;99.90
40600;DHT22;26309;50.924;4.754;2023-02-01T07:54:27;5.80;99.90
40600;DHT22;26309;50.924;4.754;2023-02-01T07:56:53;5.80;99.90
40600;DHT22;26309;50.924;4.754;2023-02-01T07:59:19;6.00;99.90
40600;DHT22;26309;50.924;4.754;2023-02-01T08:01:44;5.90;99.90
40600;DHT22;26309;50.924;4.754;2023-02-01T08:04:19;5.90;99.90
40600;DHT22;26309;50.924;4.754;2023-02-01T08:06:45;6.00;99.90
40600;DHT22;26309;50.924;4.754;2023-02-01T08:09:11;6.20;99.90
40600;DHT22;26309;50.924;4.754;2023-02-01T08:11:36;6.30;99.90
40600;DHT22;26309;50.924;4.754;2023-02-01T08:14:04;6.30;99.90
40600;DHT22;26309;50.924;4.754;2023-02-01T08:16:30;6.40;99.90
40600;DHT22;26309;50.924;4.754;2023-02-01T08:18:56;6.50;99.90
40600;DHT22;26309;50.924;4.754;2023-02-01T08:21:25;6.40;99.90
40600;DHT22;26309;50.924;4.754;2023-02-01T08:23:51;6.50;99.90
40600;DHT22;26309;50.924;4.754;2023-02-01T08:26:22;6.50;99.90
40600;DHT22;26309;50.924;4.754;2023-02-01T08:28:57;6.70;99.90
40600;DHT22;26309;50.924;4.754;2023-02-01T08:31:24;6.70;99.90
40600;DHT22;26309;50.924;4.754;2023-02-01T08:33:52;6.70;99.90
40600;DHT22;26309;50.924;4.754;2023-02-01T08:36:19;6.70;99.90
40600;DHT22;26309;50.924;4.754;2023-02-01T08:38:45;6.60;99.90
40600;DHT22;26309;50.924;4.754;2023-02-01T08:41:13;6.70;99.90
40600;DHT22;26309;50.924;4.754;2023-02-01T08:43:41;6.60;99.90
40600;DHT22;26309;50.924;4.754;2023-02-01T08:46:07;6.70;99.90
40600;DHT22;26309;50.924;4.754;2023-02-01T08:48:33;6.70;99.90
40600;DHT22;26309;50.924;4.754;2023-02-01T08:51:04;6.60;99.90
40600;DHT22;26309;50.924;4.754;2023-02-01T08:53:30;6.60;99.90
40600;DHT22;26309;50.924;4.754;2023-02-01T08:55:56;6.60;99.90
40600;DHT22;26309;50.924;4.754;2023-02-01T08:58:22;6.70;99.90
40600;DHT22;26309;50.924;4.754;2023-02-01T09:00:48;6.70;99.90
40600;DHT22;26309;50.924;4.754;2023-02-01T09:03:15;6.70;99.90
40600;DHT22;26309;50.924;4.754;2023-02-01T09:05:41;6.80;99.90
40600;DHT22;26309;50.924;4.754;2023-02-01T09:08:07;6.80;99.90
40600;DHT22;26309;50.924;4.754;2023-02-01T09:10:34;6.80;99.90
40600;DHT22;26309;50.924;4.754;2023-02-01T09:13:00;6.80;99.90
40600;DHT22;26309;50.924;4.754;2023-02-01T09:15:25;6.90;99.90
40600;DHT22;26309;50.924;4.754;2023-02-01T09:17:51;7.00;99.90
40600;DHT22;26309;50.924;4.754;2023-02-01T09:20:17;7.00;99.90
40600;DHT22;26309;50.924;4.754;2023-02-01T09:22:45;7.10;99.90
40600;DHT22;26309;50.924;4.754;2023-02-01T09:25:11;7.20;99.90
40600;DHT22;26309;50.924;4.754;2023-02-01T09:27:37;7.30;99.90
40600;DHT22;26309;50.924;4.754;2023-02-01T09:30:04;7.30;99.90
40600;DHT22;26309;50.924;4.754;2023-02-01T09:32:30;7.20;99.90
40600;DHT22;26309;50.924;4.754;2023-02-01T09:34:56;7.30;99.90
40600;DHT22;26309;50.924;4.754;2023-02-01T09:37:22;7.40;99.90
40600;DHT22;26309;50.924;4.754;2023-02-01T09:39:48;7.30;99.90
40600;DHT22;26309;50.924;4.754;2023-02-01T09:47:54;7.40;99.90
40600;DHT22;26309;50.924;4.754;2023-02-01T09:50:34;7.70;99.90
40600;DHT22;26309;50.924;4.754;2023-02-01T09:53:06;7.70;99.90
40600;DHT22;26309;50.924;4.754;2023-02-01T09:55:45;7.60;99.90
40600;DHT22;26309;50.924;4.754;2023-02-01T09:58:32;7.70;99.90
40600;DHT22;26309;50.924;4.754;2023-02-01T10:01:01;7.60;99.90
40600;DHT22;26309;50.924;4.754;2023-02-01T10:03:30;7.70;99.90
40600;DHT22;26309;50.924;4.754;2023-02-01T10:14:16;8.00;99.90
40600;DHT22;26309;50.924;4.754;2023-02-01T10:17:16;8.00;99.90
40600;DHT22;26309;50.924;4.754;2023-02-01T10:22:43;8.00;99.90
40600;DHT22;26309;50.924;4.754;2023-02-01T10:25:35;8.10;99.90
40600;DHT22;26309;50.924;4.754;2023-02-01T10:28:04;8.10;99.90
40600;DHT22;26309;50.924;4.754;2023-02-01T10:30:46;8.10;99.90
40600;DHT22;26309;50.924;4.754;2023-02-01T10:35:55;8.30;99.90
40600;DHT22;26309;50.924;4.754;2023-02-01T10:38:28;8.40;99.90
40600;DHT22;26309;50.924;4.754;2023-02-01T10:43:41;8.50;99.90
40600;DHT22;26309;50.924;4.754;2023-02-01T10:46:07;8.60;99.90
40600;DHT22;26309;50.924;4.754;2023-02-01T10:48:34;8.70;99.90
40600;DHT22;26309;50.924;4.754;2023-02-01T10:51:24;8.80;99.90
40600;DHT22;26309;50.924;4.754;2023-02-01T10:53:54;8.80;99.90
40600;DHT22;26309;50.924;4.754;2023-02-01T10:56:24;8.90;99.90
40600;DHT22;26309;50.924;4.754;2023-02-01T10:58:50;8.80;99.90
40600;DHT22;26309;50.924;4.754;2023-02-01T11:01:24;8.80;99.90
40600;DHT22;26309;50.924;4.754;2023-02-01T11:04:00;8.80;99.90
40600;DHT22;26309;50.924;4.754;2023-02-01T11:06:40;9.00;99.90
40600;DHT22;26309;50.924;4.754;2023-02-01T11:19:47;9.20;99.90
40600;DHT22;26309;50.924;4.754;2023-02-01T11:22:21;9.40;99.90
40600;DHT22;26309;50.924;4.754;2023-02-01T11:24:47;9.30;99.90
40600;DHT22;26309;50.924;4.754;2023-02-01T11:27:17;9.20;99.90
40600;DHT22;26309;50.924;4.754;2023-02-01T11:29:46;9.10;99.90
40600;DHT22;26309;50.924;4.754;2023-02-01T11:32:16;9.10;99.90
40600;DHT22;26309;50.924;4.754;2023-02-01T11:34:46;9.10;99.90
40600;DHT22;26309;50.924;4.754;2023-02-01T11:37:32;9.30;99.90
40600;DHT22;26309;50.924;4.754;2023-02-01T11:40:04;9.40;99.90
40600;DHT22;26309;50.924;4.754;2023-02-01T11:43:16;9.50;99.90
40600;DHT22;26309;50.924;4.754;2023-02-01T11:45:54;9.50;99.90
40600;DHT22;26309;50.924;4.754;2023-02-01T11:48:20;9.60;99.90
40600;DHT22;26309;50.924;4.754;2023-02-01T11:56:45;10.10;99.90
40600;DHT22;26309;50.924;4.754;2023-02-01T12:10:12;9.90;99.90
40600;DHT22;26309;50.924;4.754;2023-02-01T12:18:39;10.50;99.90
40600;DHT22;26309;50.924;4.754;2023-02-01T12:40:49;9.90;99.90
40600;DHT22;26309;50.924;4.754;2023-02-01T12:43:48;10.00;99.90
40600;DHT22;26309;50.924;4.754;2023-02-01T12:46:28;10.30;99.90
40600;DHT22;26309;50.924;4.754;2023-02-01T12:49:23;10.30;99.90
40600;DHT22;26309;50.924;4.754;2023-02-01T12:51:58;10.10;99.90
40600;DHT22;26309;50.924;4.754;2023-02-01T12:54:42;10.10;99.90
40600;DHT22;26309;50.924;4.754;2023-02-01T12:57:30;10.00;99.90
40600;DHT22;26309;50.924;4.754;2023-02-01T13:03:00;9.90;99.90
40600;DHT22;26309;50.924;4.754;2023-02-01T13:08:21;10.00;99.90
40600;DHT22;26309;50.924;4.754;2023-02-01T13:11:02;10.00;99.90
40600;DHT22;26309;50.924;4.754;2023-02-01T13:16:48;10.10;99.90
40600;DHT22;26309;50.924;4.754;2023-02-01T13:19:30;10.00;99.90
40600;DHT22;26309;50.924;4.754;2023-02-01T13:22:06;10.10;99.90
40600;DHT22;26309;50.924;4.754;2023-02-01T13:24:44;10.10;99.90
40600;DHT22;26309;50.924;4.754;2023-02-01T13:27:13;10.10;99.90
40600;DHT22;26309;50.924;4.754;2023-02-01T13:29:51;10.20;99.90
40600;DHT22;26309;50.924;4.754;2023-02-01T13:44:13;10.30;99.90
40600;DHT22;26309;50.924;4.754;2023-02-01T13:46:45;10.40;99.90
40600;DHT22;26309;50.924;4.754;2023-02-01T13:49:30;10.40;99.90
40600;DHT22;26309;50.924;4.754;2023-02-01T13:51:58;10.40;99.90
40600;DHT22;26309;50.924;4.754;2023-02-01T13:54:39;10.20;99.90
40600;DHT22;26309;50.924;4.754;2023-02-01T14:00:22;10.20;99.90
40600;DHT22;26309;50.924;4.754;2023-02-01T14:03:02;10.20;99.90
40600;DHT22;26309;50.924;4.754;2023-02-01T14:11:00;10.10;99.90
40600;DHT22;26309;50.924;4.754;2023-02-01T14:13:49;10.00;99.90
40600;DHT22;26309;50.924;4.754;2023-02-01T14:16:16;10.10;99.90
40600;DHT22;26309;50.924;4.754;2023-02-01T14:56:06;9.90;99.90
40600;DHT22;26309;50.924;4.754;2023-02-01T15:01:13;9.80;99.90
40600;DHT22;26309;50.924;4.754;2023-02-01T15:14:48;10.00;99.90
40600;DHT22;26309;50.924;4.754;2023-02-01T15:17:30;9.90;99.90
40600;DHT22;26309;50.924;4.754;2023-02-01T15:20:03;9.80;99.90
40600;DHT22;26309;50.924;4.754;2023-02-01T15:22:31;9.80;99.90
40600;DHT22;26309;50.924;4.754;2023-02-01T15:24:59;9.70;99.90
40600;DHT22;26309;50.924;4.754;2023-02-01T15:27:26;9.70;99.90
40600;DHT22;26309;50.924;4.754;2023-02-01T15:29:52;9.70;99.90
40600;DHT22;26309;50.924;4.754;2023-02-01T15:32:36;9.70;99.90
40600;DHT22;26309;50.924;4.754;2023-02-01T15:35:04;9.60;99.90
40600;DHT22;26309;50.924;4.754;2023-02-01T15:37:30;9.70;99.90
40600;DHT22;26309;50.924;4.754;2023-02-01T15:42:54;9.50;99.90
40600;DHT22;26309;50.924;4.754;2023-02-01T15:45:22;9.50;99.90
40600;DHT22;26309;50.924;4.754;2023-02-01T15:47:52;9.50;99.90
40600;DHT22;26309;50.924;4.754;2023-02-01T15:50:19;9.60;99.90
40600;DHT22;26309;50.924;4.754;2023-02-01T15:52:48;9.50;99.90
40600;DHT22;26309;50.924;4.754;2023-02-01T15:55:36;9.60;99.90
40600;DHT22;26309;50.924;4.754;2023-02-01T15:58:25;9.60;99.90
40600;DHT22;26309;50.924;4.754;2023-02-01T16:00:57;9.40;99.90
40600;DHT22;26309;50.924;4.754;2023-02-01T16:05:57;9.40;99.90
40600;DHT22;26309;50.924;4.754;2023-02-01T16:08:26;9.40;99.90
40600;DHT22;26309;50.924;4.754;2023-02-01T16:10:59;9.40;99.90
40600;DHT22;26309;50.924;4.754;2023-02-01T16:13:26;9.30;99.90
40600;DHT22;26309;50.924;4.754;2023-02-01T16:15:52;9.30;99.90
40600;DHT22;26309;50.924;4.754;2023-02-01T16:18:18;9.40;99.90
40600;DHT22;26309;50.924;4.754;2023-02-01T16:20:44;9.40;99.90
40600;DHT22;26309;50.924;4.754;2023-02-01T16:23:10;9.50;99.90
40600;DHT22;26309;50.924;4.754;2023-02-01T16:25:37;9.50;99.90
40600;DHT22;26309;50.924;4.754;2023-02-01T16:28:03;9.50;99.90
40600;DHT22;26309;50.924;4.754;2023-02-01T16:30:31;9.40;99.90
40600;DHT22;26309;50.924;4.754;2023-02-01T16:32:59;9.40;99.90
40600;DHT22;26309;50.924;4.754;2023-02-01T16:35:30;9.40;99.90
40600;DHT22;26309;50.924;4.754;2023-02-01T16:40:34;9.50;99.90
40600;DHT22;26309;50.924;4.754;2023-02-01T16:43:00;9.50;99.90
40600;DHT22;26309;50.924;4.754;2023-02-01T16:45:26;9.60;99.90
40600;DHT22;26309;50.924;4.754;2023-02-01T16:47:54;9.60;99.90
40600;DHT22;26309;50.924;4.754;2023-02-01T16:50:23;9.50;99.90
40600;DHT22;26309;50.924;4.754;2023-02-01T16:52:50;9.50;99.90
40600;DHT22;26309;50.924;4.754;2023-02-01T16:55:18;9.50;99.90
40600;DHT22;26309;50.924;4.754;2023-02-01T16:57:45;9.50;99.90
40600;DHT22;26309;50.924;4.754;2023-02-01T17:00:11;9.40;99.90
40600;DHT22;26309;50.924;4.754;2023-02-01T17:02:38;9.40;99.90
40600;DHT22;26309;50.924;4.754;2023-02-01T17:05:05;9.40;99.90
40600;DHT22;26309;50.924;4.754;2023-02-01T17:07:31;9.30;99.90
40600;DHT22;26309;50.924;4.754;2023-02-01T17:09:56;9.30;99.90
40600;DHT22;26309;50.924;4.754;2023-02-01T17:12:28;9.40;99.90
40600;DHT22;26309;50.924;4.754;2023-02-01T17:14:58;9.50;99.90
40600;DHT22;26309;50.924;4.754;2023-02-01T17:17:36;9.40;99.90
40600;DHT22;26309;50.924;4.754;2023-02-01T17:20:03;9.50;99.90
40600;DHT22;26309;50.924;4.754;2023-02-01T17:22:29;9.50;99.90
40600;DHT22;26309;50.924;4.754;2023-02-01T17:24:55;9.40;99.90
40600;DHT22;26309;50.924;4.754;2023-02-01T17:27:20;9.40;99.90
40600;DHT22;26309;50.924;4.754;2023-02-01T17:29:47;9.40;99.90
40600;DHT22;26309;50.924;4.754;2023-02-01T17:32:20;9.40;99.90
40600;DHT22;26309;50.924;4.754;2023-02-01T17:34:46;9.30;99.90
40600;DHT22;26309;50.924;4.754;2023-02-01T17:37:32;9.40;99.90
40600;DHT22;26309;50.924;4.754;2023-02-01T17:40:04;9.50;99.90
40600;DHT22;26309;50.924;4.754;2023-02-01T17:42:30;9.50;99.90
40600;DHT22;26309;50.924;4.754;2023-02-01T17:44:58;9.40;99.90
40600;DHT22;26309;50.924;4.754;2023-02-01T17:47:25;9.20;99.90
40600;DHT22;26309;50.924;4.754;2023-02-01T17:49:51;9.30;99.90
40600;DHT22;26309;50.924;4.754;2023-02-01T17:52:22;9.20;99.90
40600;DHT22;26309;50.924;4.754;2023-02-01T17:54:48;9.30;99.90
40600;DHT22;26309;50.924;4.754;2023-02-01T17:57:15;9.20;99.90
40600;DHT22;26309;50.924;4.754;2023-02-01T17:59:42;9.30;99.90
40600;DHT22;26309;50.924;4.754;2023-02-01T18:02:34;9.30;99.90
40600;DHT22;26309;50.924;4.754;2023-02-01T18:04:59;9.20;99.90
40600;DHT22;26309;50.924;4.754;2023-02-01T18:07:25;9.20;99.90
40600;DHT22;26309;50.924;4.754;2023-02-01T18:09:51;9.30;99.90
40600;DHT22;26309;50.924;4.754;2023-02-01T18:12:21;9.40;99.90
40600;DHT22;26309;50.924;4.754;2023-02-01T18:14:48;9.20;99.90
40600;DHT22;26309;50.924;4.754;2023-02-01T18:17:14;9.20;99.90
40600;DHT22;26309;50.924;4.754;2023-02-01T18:19:39;9.30;99.90
40600;DHT22;26309;50.924;4.754;2023-02-01T18:22:05;9.30;99.90
40600;DHT22;26309;50.924;4.754;2023-02-01T18:24:34;9.20;99.90
40600;DHT22;26309;50.924;4.754;2023-02-01T18:27:01;9.10;99.90
40600;DHT22;26309;50.924;4.754;2023-02-01T18:29:27;9.20;99.90
40600;DHT22;26309;50.924;4.754;2023-02-01T18:31:53;9.10;99.90
40600;DHT22;26309;50.924;4.754;2023-02-01T18:34:19;9.00;99.90
40600;DHT22;26309;50.924;4.754;2023-02-01T18:36:48;9.10;99.90
40600;DHT22;26309;50.924;4.754;2023-02-01T18:39:14;8.90;99.90
40600;DHT22;26309;50.924;4.754;2023-02-01T18:41:39;9.00;99.90
40600;DHT22;26309;50.924;4.754;2023-02-01T18:44:13;8.90;99.90
40600;DHT22;26309;50.924;4.754;2023-02-01T18:46:40;8.90;99.90
40600;DHT22;26309;50.924;4.754;2023-02-01T18:49:05;8.90;99.90
40600;DHT22;26309;50.924;4.754;2023-02-01T18:51:31;8.90;99.90
40600;DHT22;26309;50.924;4.754;2023-02-01T18:53:57;8.80;99.90
40600;DHT22;26309;50.924;4.754;2023-02-01T18:56:23;8.90;99.90
40600;DHT22;26309;50.924;4.754;2023-02-01T18:58:51;9.00;99.90
40600;DHT22;26309;50.924;4.754;2023-02-01T19:01:19;9.10;99.90
40600;DHT22;26309;50.924;4.754;2023-02-01T19:03:47;9.00;99.90
40600;DHT22;26309;50.924;4.754;2023-02-01T19:06:13;9.20;99.90
40600;DHT22;26309;50.924;4.754;2023-02-01T19:08:39;9.10;99.90
40600;DHT22;26309;50.924;4.754;2023-02-01T19:11:06;9.00;99.90
40600;DHT22;26309;50.924;4.754;2023-02-01T19:13:37;9.10;99.90
40600;DHT22;26309;50.924;4.754;2023-02-01T19:16:12;9.20;99.90